Terminal Aerodrome Forecast
Issued by NWS Tuscon, AZ

Home | Current Version | Previous Version | Text Only | Print | Product List | Glossary On
Versions: 1 2 3 4 5 6 7 8 9 10 11 12 13
000
FTUS45 KTWC 252300
TAFDUG
TAF
KDUG 252320Z 2600/2624 10010KT P6SM BKN250
     FM260500 04006KT P6SM SCT100 BKN200
     FM261800 10010KT P6SM BKN080 OVC120
     FM262100 10009KT P6SM -SHRA BKN035 OVC050=

USA.gov is the U.S. government's official web portal to all federal, state and local government web resources and services.